Aérodrome :
LOGIN :

S'inscrire | Disclaimer

   EN    FR    IT 

 










Légende :    VFR   VFR Marginal   IFR   IFR Intensif   IFR Très Intensif
Visi : 
Plafond : 
>= 8 km
>= 3000ft
5 à 8 km
1000 à 3000 ft
1500m à 5 km
500 à 1000 ft
800 à 1500m
200 à 500 ft
< 800m
< 200 ft
Symboles :   Orages  Brouillard  Fortes neiges  Fortes précipitations  Vent > 20 kt
SIGMETs :   Divers  Orages  Givrage  Turbulence  Onde Orograph.  Cendres Volcan.







- Altitude de l'aérodrome : 436 ft
- Code IATA : BTS


LZIB - Bratislava

DERNIER METAR :
  • 151130Z 28014KT CAVOK 07/M00 Q1000 NOSIG

METARs EXPIRÉS :
  • 151100Z 28010KT CAVOK 07/00 Q0999 NOSIG
  • 151030Z 27010KT 240V300 CAVOK 07/01 Q0999 NOSIG
  • 151000Z 27007KT 240V300 CAVOK 06/01 Q1000 NOSIG
  • 150930Z 28003KT 180V350 CAVOK 06/01 Q1000 NOSIG
  • 150900Z 28006KT 240V300 9999 FEW025 05/02 Q0999 NOSIG

TAF TAF LZIB
Valide du 15 à 12h jusqu'au 16 à 12h UTC


151100Z 1512/1612 27010KT 9999 SCT040 BKN100
BECMG 1516/1518 34004KT
BECMG 1600/1602 30009KT
TEMPO 1600/1604 -RA BKN037 BKN080
Pas de NOTAMs connus pour ce terrain.



MET'MAP, la Météo Aéronautique d'un coup d'oeil ! - Copyright ORBIFLY Décembre 2007 - Disclaimer

ORBIFLY MET'MAP TEAM :

Programmation & Développement : Alexandra Zaïnal
Conception & Développement : Baudouin d'Aumeries
Co-Programmation & Développement : Marc-Olivier Méhu
Soutien technique & logistique : Manuel Goepfert

Contact : metmap@orbifly.com




SOURCES & CREDITS :

   NOAA